x

Folly Island, Sc (fbis1) Weather Station

11:00am - Sun 20th Aug 2017 All times are EDT. -4 hours from GMT.

  • Wind
    2mph, 5mph gusts
  • Air Temp 86°f
  • Sea Pressure 1019mb
  • Folly Island, Sc
  • Folly Island, Sc

More Historic Weather Station data

Upgrade to MSW Pro to gain access to the past 30 days of data for over 8000 Wavebouys and Weather Stations around the globe.

Join

Comparision Forecast

View Surf forecast
   
Sun 08/20 11:00am 2 5 mph 1019mb 86f
10:00am 3 5 mph 1018.7mb 85f
9:00am 2 3 mph 1018.3mb 83f
8:00am 2 2 mph 1018.3mb 84f
7:00am 3 3 mph 1017.5mb 83f
6:00am 9 10 mph 1016.8mb 84f
5:00am 10 14 mph 1016.3mb 84f
4:00am 9 10 mph 1016.2mb 84f
3:00am 13 14 mph 1016.3mb 84f
2:00am 8 13 mph 1016.3mb 84f
1:00am 14 15 mph 1016.2mb 84f
12:00am 14 15 mph 1016.1mb 84f
Sat 08/19 11:00pm 14 15 mph 1015.7mb 84f
10:00pm 16 17 mph 1015.3mb 84f
9:00pm 13 15 mph 1014.9mb 84f
8:00pm 14 16 mph 1014.5mb 84f
7:00pm 13 15 mph 1014.3mb 85f
6:00pm 16 18 mph 1014.2mb 85f
5:00pm 15 18 mph 1013.8mb 86f
4:00pm 15 17 mph 1013.8mb 86f
3:00pm 16 20 mph 1014.4mb 86f
2:00pm 15 17 mph 1015mb 86f
1:00pm 13 14 mph 1015.2mb 86f
12:00pm 11 13 mph 1015.5mb 86f
11:00am 10 13 mph 1015.5mb 85f
10:00am 10 11 mph 1015.1mb 85f
9:00am 10 11 mph 1014.9mb 84f
8:00am 6 9 mph 1014.6mb 83f
7:00am 7 9 mph 1014.5mb 82f
6:00am 9 10 mph 1014.1mb 83f
5:00am 11 16 mph 1014.2mb 84f
4:00am 13 16 mph 1014.2mb 85f
3:00am 15 20 mph 1014.6mb 85f
2:00am 21 23 mph 1014.8mb 85f
1:00am 23 25 mph 1015.1mb 85f
12:00am 21 22 mph 1014.8mb 85f
Fri 08/18 11:00pm 17 21 mph 1014.6mb 85f
10:00pm 20 22 mph 1014.8mb 86f
9:00pm 16 20 mph 1014.5mb 85f
8:00pm 18 21 mph 1014.4mb 86f
6:00pm 17 20 mph 1014.1mb 86f
5:00pm 16 18 mph 1013.8mb 87f
4:00pm 14 16 mph 1013.9mb 87f
3:00pm 13 15 mph 1014.4mb 87f
2:00pm 13 14 mph 1015.1mb 87f
1:00pm 13 15 mph 1015.5mb 86f
12:00pm 2 3 mph 1016mb 91f
11:00am 7 9 mph 1016.2mb 89f
10:00am 5 7 mph 1016.4mb 85f
9:00am 7 9 mph 1015.9mb 84f
8:00am 6 8 mph 1015.8mb 83f
7:00am 5 6 mph 1015.1mb 83f
6:00am 8 10 mph 1014.9mb 84f
5:00am 11 15 mph 1014.8mb 85f
4:00am 16 18 mph 1014.9mb 85f
3:00am 17 20 mph 1014.9mb 85f
2:00am 16 18 mph 1015.4mb 85f
1:00am 16 20 mph 1015.9mb 85f
12:00am 21 23 mph 1016.2mb 86f
Thu 08/17 11:00pm 17 21 mph 1016.3mb 86f
10:00pm 17 18 mph 1016.3mb 86f
9:00pm 15 16 mph 1015.8mb 86f
8:00pm 11 13 mph 1016mb 86f
7:00pm 11 13 mph 1015.9mb 87f
6:00pm 8 9 mph 1015.7mb 87f
5:00pm 3 6 mph 1015.4mb 87f
4:00pm 7 13 mph 1016.4mb 86f
3:00pm 6 7 mph 1016.3mb 90f
2:00pm 14 15 mph 1016.7mb 88f
1:00pm 10 13 mph 1017.5mb 89f
12:00pm 10 11 mph 1017.9mb 88f
11:00am 7 9 mph 1018.1mb 88f
10:00am 1 5 mph 1018mb 89f
9:00am 6 8 mph 1017.6mb 85f
8:00am 3 5 mph 1017.3mb 83f
7:00am 5 5 mph 1017mb 82f
6:00am 5 6 mph 1016.6mb 83f
5:00am 6 8 mph 1016.4mb 84f
4:00am 7 9 mph 1016.3mb 84f
3:00am 9 11 mph 1016.4mb 85f
2:00am 10 13 mph 1016.7mb 85f
1:00am 8 10 mph 1017.3mb 85f
12:00am 9 13 mph 1017.3mb 85f
Wed 08/16 11:00pm 9 14 mph 1017mb 85f
10:00pm 5 6 mph 1017.1mb 85f
9:00pm  -  1 mph 1017.1mb 86f
8:00pm 8 10 mph 1016.2mb 86f
7:00pm 16 21 mph 1015.6mb 86f
6:00pm 16 18 mph 1015.6mb 87f
5:00pm 16 17 mph 1015.7mb 87f